createdAt,value
2022-10-17T00:02:51.881Z,19.93
2022-10-17T00:07:56.509Z,19.98
2022-10-17T00:13:02.076Z,19.83
2022-10-17T00:18:05.737Z,19.63
2022-10-17T00:23:11.049Z,19.59
2022-10-17T00:28:16.718Z,19.59
2022-10-17T00:33:20.248Z,19.57
2022-10-17T00:38:23.779Z,19.48
2022-10-17T00:43:29.489Z,19.30
2022-10-17T00:48:33.016Z,19.17
2022-10-17T00:53:37.878Z,18.99
2022-10-17T00:58:43.226Z,18.83
2022-10-17T01:03:47.026Z,18.76
2022-10-17T01:08:50.570Z,18.67
2022-10-17T01:14:02.421Z,18.56
2022-10-17T01:19:26.610Z,18.38
2022-10-17T01:24:49.458Z,18.20
2022-10-17T01:30:10.467Z,18.07
2022-10-17T01:35:23.222Z,17.86
2022-10-17T01:40:31.311Z,17.73
2022-10-17T01:45:41.534Z,17.87
2022-10-17T01:50:51.748Z,17.65
2022-10-17T01:55:58.913Z,17.42
2022-10-17T02:01:06.148Z,17.24
2022-10-17T02:06:12.286Z,17.00
2022-10-17T02:11:18.543Z,16.93
2022-10-17T02:16:35.273Z,16.85
2022-10-17T02:21:51.969Z,16.87
2022-10-17T02:27:02.772Z,16.57
2022-10-17T02:32:09.619Z,16.44
2022-10-17T02:37:23.910Z,16.40
2022-10-17T02:42:30.203Z,16.19
2022-10-17T02:47:38.527Z,16.09
2022-10-17T02:52:49.250Z,16.04
2022-10-17T02:57:56.796Z,15.97
2022-10-17T03:03:00.312Z,15.89
2022-10-17T03:08:05.758Z,15.74
2022-10-17T03:13:09.281Z,15.58
2022-10-17T03:18:13.087Z,15.55
2022-10-17T03:23:27.831Z,15.33
2022-10-17T03:28:31.387Z,15.27
2022-10-17T03:33:34.978Z,15.24
2022-10-17T03:38:40.640Z,15.21
2022-10-17T03:43:44.158Z,15.04
2022-10-17T03:48:47.692Z,15.02
2022-10-17T03:53:53.038Z,14.94
2022-10-17T03:58:57.070Z,14.87
2022-10-17T04:04:00.628Z,14.79
2022-10-17T04:09:06.630Z,14.75
2022-10-17T04:14:11.529Z,14.77
2022-10-17T04:19:15.265Z,14.68
2022-10-17T04:24:20.534Z,14.64
2022-10-17T04:29:24.820Z,14.62
2022-10-17T04:34:28.361Z,14.54
2022-10-17T04:39:33.518Z,14.50
2022-10-17T04:44:37.058Z,14.46
2022-10-17T04:54:46.546Z,14.17
2022-10-17T04:59:50.098Z,14.12
2022-10-17T05:04:53.618Z,14.01
2022-10-17T05:09:58.804Z,13.98
2022-10-17T05:15:02.346Z,13.92
2022-10-17T05:20:06.885Z,13.80
2022-10-17T05:25:13.863Z,13.76
2022-10-17T05:30:17.496Z,13.63
2022-10-17T05:35:21.067Z,13.67
2022-10-17T05:40:26.278Z,13.70
2022-10-17T05:45:29.822Z,13.64
2022-10-17T05:50:33.501Z,13.65
2022-10-17T05:55:38.658Z,13.61
2022-10-17T06:00:42.231Z,13.55
2022-10-17T06:05:45.763Z,13.49
2022-10-17T06:10:51.411Z,13.43
2022-10-17T06:15:55.015Z,13.38
2022-10-17T06:21:03.877Z,13.36
2022-10-17T06:26:09.238Z,13.35
2022-10-17T06:31:14.527Z,13.24
2022-10-17T06:36:18.202Z,13.23
2022-10-17T06:41:23.346Z,13.17
2022-10-17T06:46:26.852Z,13.16
2022-10-17T06:51:30.414Z,13.08
2022-10-17T06:56:36.505Z,13.00
2022-10-17T07:01:41.773Z,13.02
2022-10-17T07:06:49.886Z,12.94
2022-10-17T07:11:55.080Z,12.89
2022-10-17T07:16:58.661Z,12.80
2022-10-17T07:22:02.212Z,12.77
2022-10-17T07:27:07.486Z,12.81
2022-10-17T07:32:11.061Z,12.75
2022-10-17T07:37:14.621Z,12.78
2022-10-17T07:42:19.807Z,12.66
2022-10-17T07:47:23.608Z,12.67
2022-10-17T07:52:27.474Z,12.62
2022-10-17T07:57:32.891Z,12.64
2022-10-17T08:02:36.418Z,12.51
2022-10-17T08:07:39.969Z,12.42
2022-10-17T08:12:45.799Z,12.45
2022-10-17T08:17:50.246Z,12.43
2022-10-17T08:22:54.192Z,12.41
2022-10-17T08:27:59.630Z,12.39
2022-10-17T08:33:03.222Z,12.38
2022-10-17T08:38:08.180Z,12.28
2022-10-17T08:43:35.345Z,12.26
2022-10-17T08:48:43.994Z,12.17
2022-10-17T08:53:55.124Z,12.07
2022-10-17T08:59:00.384Z,12.05
2022-10-17T09:04:20.532Z,12.06
2022-10-17T09:09:35.222Z,12.04
2022-10-17T09:15:09.048Z,12.00
2022-10-17T09:20:17.132Z,11.93
2022-10-17T09:25:21.839Z,11.94
2022-10-17T09:30:50.796Z,11.96
2022-10-17T09:35:54.962Z,11.95
2022-10-17T09:41:01.289Z,11.90
2022-10-17T09:46:13.755Z,11.92
2022-10-17T09:51:25.588Z,11.81
2022-10-17T09:56:30.357Z,11.84
2022-10-17T10:01:35.564Z,11.74
2022-10-17T10:06:39.822Z,11.68
2022-10-17T10:11:48.869Z,11.64
2022-10-17T10:16:54.311Z,11.69
2022-10-17T10:21:59.461Z,11.58
2022-10-17T10:27:04.907Z,11.53
2022-10-17T10:32:13.208Z,11.56
2022-10-17T10:37:22.449Z,11.58
2022-10-17T10:42:29.718Z,11.44
2022-10-17T10:47:34.944Z,11.54
2022-10-17T10:52:44.065Z,11.50
2022-10-17T10:57:49.507Z,11.43
2022-10-17T11:03:03.810Z,11.48
2022-10-17T11:08:14.868Z,11.46
2022-10-17T11:13:23.049Z,11.40
2022-10-17T11:18:34.086Z,11.41
2022-10-17T11:23:42.294Z,11.38
2022-10-17T11:28:45.873Z,11.42
2022-10-17T11:33:55.086Z,11.32
2022-10-17T11:39:02.773Z,11.35
2022-10-17T11:44:20.970Z,11.35
2022-10-17T11:49:32.134Z,11.35
2022-10-17T11:54:41.988Z,11.29
2022-10-17T12:00:07.649Z,11.25
2022-10-17T12:05:22.593Z,11.30
2022-10-17T12:10:40.028Z,11.26
2022-10-17T12:15:46.558Z,11.28
2022-10-17T12:20:57.530Z,11.15
2022-10-17T12:26:04.718Z,11.15
2022-10-17T12:31:11.758Z,11.20
2022-10-17T12:36:49.538Z,11.22
2022-10-17T12:41:55.951Z,11.21
2022-10-17T12:46:59.880Z,11.18
2022-10-17T12:52:49.286Z,11.16
2022-10-17T12:57:57.319Z,11.09
2022-10-17T13:03:07.492Z,11.05
2022-10-17T13:08:18.705Z,11.03
2022-10-17T13:13:26.331Z,10.97
2022-10-17T13:18:30.496Z,11.03
2022-10-17T13:23:37.568Z,10.97
2022-10-17T13:28:41.179Z,10.92
2022-10-17T13:33:44.715Z,10.96
2022-10-17T13:38:50.114Z,10.97
2022-10-17T13:43:54.052Z,10.89
2022-10-17T13:48:58.903Z,10.88
2022-10-17T13:54:19.382Z,10.86
2022-10-17T13:59:24.718Z,10.83
2022-10-17T14:04:28.304Z,10.88
2022-10-17T14:09:33.860Z,10.78
2022-10-17T14:15:05.146Z,10.75
2022-10-17T14:20:34.026Z,10.68
2022-10-17T14:25:31.709Z,10.76
2022-10-17T14:31:03.001Z,10.73
2022-10-17T14:35:59.702Z,10.74
2022-10-17T14:46:35.515Z,11.04
2022-10-17T14:51:50.384Z,11.26
2022-10-17T14:57:15.785Z,11.61
2022-10-17T15:02:19.302Z,12.08
2022-10-17T15:07:23.231Z,12.43
2022-10-17T15:12:28.707Z,12.82
2022-10-17T15:17:33.737Z,13.34
2022-10-17T15:22:37.339Z,13.93
2022-10-17T15:27:42.552Z,14.35
2022-10-17T15:32:46.098Z,14.88
2022-10-17T15:37:50.319Z,15.29
2022-10-17T15:42:55.520Z,15.82
2022-10-17T15:48:04.975Z,15.95
2022-10-17T15:53:12.804Z,16.23
2022-10-17T15:58:19.561Z,16.22
2022-10-17T16:03:23.091Z,16.19
2022-10-17T16:08:26.675Z,16.00
2022-10-17T16:13:32.267Z,15.97
2022-10-17T16:18:35.787Z,16.24
2022-10-17T16:23:39.334Z,16.52
2022-10-17T16:28:46.215Z,16.78
2022-10-17T16:33:51.621Z,17.07
2022-10-17T16:38:55.214Z,17.27
2022-10-17T16:44:02.373Z,17.46
2022-10-17T16:49:06.404Z,17.73
2022-10-17T16:54:10.071Z,17.80
2022-10-17T16:59:15.230Z,18.00
2022-10-17T17:04:18.755Z,17.95
2022-10-17T17:09:22.386Z,18.14
2022-10-17T17:14:27.646Z,18.37
2022-10-17T17:19:31.321Z,18.44
2022-10-17T17:24:34.840Z,18.59
2022-10-17T17:29:40.605Z,18.80
2022-10-17T17:34:44.130Z,18.93
2022-10-17T17:39:47.652Z,19.16
2022-10-17T17:44:53.726Z,19.34
2022-10-17T17:49:57.277Z,19.54
2022-10-17T17:55:00.812Z,19.50
2022-10-17T18:00:07.075Z,19.64
2022-10-17T18:05:10.649Z,19.79
2022-10-17T18:15:20.788Z,20.10
2022-10-17T18:20:24.328Z,20.29
2022-10-17T18:25:27.830Z,20.50
2022-10-17T18:30:34.539Z,20.66
2022-10-17T18:35:38.201Z,21.14
2022-10-17T18:40:41.742Z,21.57
2022-10-17T18:45:46.887Z,22.05
2022-10-17T18:50:50.461Z,22.36
2022-10-17T18:55:53.989Z,22.33
2022-10-17T19:01:03.472Z,22.54
2022-10-17T19:06:08.900Z,23.03
2022-10-17T19:11:14.821Z,23.19
2022-10-17T19:16:21.859Z,23.03
2022-10-17T19:21:26.140Z,22.87
2022-10-17T19:26:31.608Z,22.72
2022-10-17T19:31:37.405Z,22.50
2022-10-17T19:36:41.216Z,22.70
2022-10-17T19:41:45.950Z,23.11
2022-10-17T19:46:52.153Z,23.12
2022-10-17T19:51:55.813Z,23.24
2022-10-17T19:56:59.437Z,23.07
2022-10-17T20:02:04.734Z,23.19
2022-10-17T20:07:08.285Z,23.49
2022-10-17T20:12:11.831Z,23.58
2022-10-17T20:17:17.747Z,23.72
2022-10-17T20:22:21.479Z,23.59
2022-10-17T20:27:27.664Z,23.60
2022-10-17T20:32:39.528Z,23.02
2022-10-17T20:37:43.843Z,23.39
2022-10-17T20:42:47.359Z,23.35
2022-10-17T20:47:53.465Z,23.35
2022-10-17T20:53:11.114Z,23.36
2022-10-17T20:58:20.908Z,23.38
2022-10-17T21:03:26.101Z,23.26
2022-10-17T21:08:29.648Z,23.38
2022-10-17T21:13:33.153Z,23.38
2022-10-17T21:18:38.836Z,23.35
2022-10-17T21:23:43.746Z,23.39
2022-10-17T21:28:48.518Z,23.52
2022-10-17T21:33:55.946Z,23.64
2022-10-17T21:38:59.755Z,23.64
2022-10-17T21:44:04.943Z,23.68
2022-10-17T21:49:12.011Z,23.86
2022-10-17T21:54:16.189Z,23.80
2022-10-17T21:59:19.821Z,23.75
2022-10-17T22:04:24.978Z,23.79
2022-10-17T22:09:28.598Z,23.69
2022-10-17T22:14:32.136Z,23.71
2022-10-17T22:19:37.344Z,23.56
2022-10-17T22:24:40.852Z,23.53
2022-10-17T22:29:44.373Z,23.53
2022-10-17T22:34:51.014Z,23.37
2022-10-17T22:39:54.568Z,23.35
2022-10-17T22:44:58.158Z,23.39
2022-10-17T22:50:03.358Z,23.33
2022-10-17T22:55:08.002Z,23.12
2022-10-17T23:00:12.887Z,23.18
2022-10-17T23:05:18.166Z,23.23
2022-10-17T23:10:21.704Z,23.06
2022-10-17T23:15:25.249Z,22.98
2022-10-17T23:20:31.577Z,22.92
2022-10-17T23:25:35.620Z,22.74
2022-10-17T23:30:39.498Z,22.73
2022-10-17T23:35:44.667Z,22.72
2022-10-17T23:40:48.183Z,22.63
2022-10-17T23:45:51.701Z,22.56
2022-10-17T23:50:57.787Z,22.55
2022-10-17T23:56:01.447Z,22.45
